Flight Track Log - Related Links

Times and Time Zones

All times are in EDT time to prevent confusion due to time zone crossing. See the JZA7832 flight status page for this flight to view local times or setup timezone preferences in your user account.

Time Position Orientation Groundspeed Altitude Reporting Facility
EDT Latitude Longitude Course Direction KTS MPH feet Rate Location/Type
Tue 08:35:00 PM 48.1993 -81.2540 171° South  Level FlightAware Approximate
Tue 08:36:00 PM 48.1257 -81.2327 169° South  Level FlightAware Approximate
Tue 08:37:00 PM 48.0522 -81.2106 169° South  Level FlightAware Approximate
Tue 08:38:00 PM 47.9786 -81.1891 169° South  Level FlightAware Approximate
Tue 08:39:00 PM 47.9050 -81.1680 169° South  Level FlightAware Approximate
Tue 08:40:00 PM 47.8313 -81.1470 169° South  Level FlightAware Approximate
Tue 08:40:53 PM 48.1000 -81.2333 169° South 200 230 11,600  Level Toronto Center
Tue 08:41:00 PM 47.7578 -81.1248 167° South  Level FlightAware Approximate
Tue 08:41:53 PM 48.0500 -81.2000 156° South 190 219 12,600  Level Toronto Center
Tue 08:42:00 PM 47.6840 -81.1057 171° South  Level FlightAware Approximate
Tue 08:42:53 PM 48.0000 -81.2000 180° South 200 230 13,500  Level Toronto Center
Tue 08:43:00 PM 47.6098 -81.0892 171° South  Level FlightAware Approximate
Tue 08:43:53 PM 47.9500 -81.2000 180° South 200 230 14,300  Level Toronto Center
Tue 08:44:00 PM 47.5360 -81.0698 169° South  Level FlightAware Approximate
Tue 08:44:53 PM 47.8833 -81.1667 161° South 210 242 15,100  Level Toronto Center
Tue 08:45:00 PM 47.4624 -81.0487 169° South  Level FlightAware Approximate
Tue 08:45:53 PM 47.8333 -81.1500 167° South 210 242 15,800  Level Toronto Center
Tue 08:46:00 PM 47.3888 -81.0277 169° South  Level FlightAware Approximate
Tue 08:46:53 PM 47.7667 -81.1500 180° South 220 253 16,700  Level Toronto Center
Tue 08:47:53 PM 47.7000 -81.1167 161° South 220 253 17,500 850 Climbing Toronto Center
Tue 08:48:53 PM 47.6333 -81.0833 161° South 220 253 18,400 800 Climbing Toronto Center
Tue 08:49:53 PM 47.5833 -81.0833 180° South 220 253 19,100 650 Climbing Toronto Center
Tue 08:50:53 PM 47.5167 -81.0667 170° South 230 265 19,700 550 Climbing Toronto Center
Tue 08:51:53 PM 47.4500 -81.0333 161° South 240 276 20,200 550 Climbing Toronto Center
Tue 08:52:53 PM 47.3833 -81.0167 170° South 250 288 20,800 400 Climbing Toronto Center
Tue 08:53:53 PM 47.3167 -81.0000 170° South 260 299 21,000 100 Climbing Toronto Center
Tue 08:54:53 PM 47.2333 -80.9833 172° South 270 311 21,000  Level Toronto Center
Tue 08:55:53 PM 47.1500 -80.9500 165° South 290 334 21,000  Level Toronto Center
Tue 08:56:53 PM 47.0833 -80.9333 170° South 290 334 21,000  Level Toronto Center
Tue 08:57:53 PM 47.0167 -80.9000 161° South 290 334 21,000  Level Toronto Center
Tue 08:58:53 PM 46.9333 -80.8833 172° South 290 334 21,000  Level Toronto Center
Tue 08:59:53 PM 46.8500 -80.8667 172° South 290 334 21,000  Level Toronto Center
Tue 09:00:53 PM 46.7667 -80.8500 172° South 290 334 21,000  Level Toronto Center
Tue 09:01:53 PM 46.7000 -80.8167 161° South 300 345 21,000  Level Toronto Center
Tue 09:02:53 PM 46.6167 -80.8000 172° South 290 334 21,000  Level Toronto Center
Tue 09:03:53 PM 46.5333 -80.7667 165° South 300 345 21,000  Level Toronto Center
Tue 09:04:53 PM 46.4500 -80.7500 172° South 300 345 21,000  Level Toronto Center
Tue 09:05:53 PM 46.3667 -80.7167 165° South 290 334 21,000  Level Toronto Center
Tue 09:06:53 PM 46.3000 -80.7167 180° South 300 345 21,000  Level Toronto Center
Tue 09:07:53 PM 46.2167 -80.7000 172° South 300 345 21,000  Level Toronto Center
Tue 09:08:53 PM 46.1333 -80.6667 165° South 300 345 21,000  Level Toronto Center
Tue 09:09:53 PM 46.0500 -80.6333 164° South 300 345 21,000  Level Toronto Center
Tue 09:10:53 PM 45.9667 -80.6167 172° South 300 345 21,000  Level Toronto Center
Tue 09:11:53 PM 45.8833 -80.5833 164° South 300 345 21,000  Level Toronto Center
Tue 09:12:53 PM 45.8000 -80.5667 172° South 290 334 21,000  Level Toronto Center
Tue 09:13:53 PM 45.7167 -80.5333 164° South 290 334 21,000  Level Toronto Center
Tue 09:14:53 PM 45.6500 -80.5333 180° South 300 345 21,000  Level Toronto Center
Tue 09:15:53 PM 45.5667 -80.5167 172° South 300 345 21,000  Level Toronto Center
Tue 09:16:53 PM 45.4833 -80.4833 164° South 300 345 21,000  Level Toronto Center
Tue 09:17:53 PM 45.4000 -80.4667 172° South 300 345 21,000  Level Toronto Center
Tue 09:18:53 PM 45.3167 -80.4333 164° South 300 345 21,000  Level Toronto Center
Tue 09:19:53 PM 45.2333 -80.4167 172° South 300 345 21,000  Level Toronto Center
Tue 09:20:53 PM 45.1500 -80.3833 164° South 300 345 21,000  Level Toronto Center
Tue 09:21:53 PM 45.0667 -80.3667 172° South 300 345 21,000  Level Toronto Center
Tue 09:22:53 PM 45.0000 -80.3333 161° South 300 345 21,000  Level Toronto Center
Tue 09:23:53 PM 44.9167 -80.3333 180° South 300 345 21,000  Level Toronto Center
Tue 09:24:53 PM 44.8333 -80.3167 172° South 300 345 21,000 -450 Level Toronto Center
Tue 09:25:53 PM 44.7333 -80.2833 167° South 310 357 20,100 -1,000 Descending Toronto Center
Tue 09:26:53 PM 44.6500 -80.2667 172° South 320 368 19,000 -1,050 Descending Toronto Center
Tue 09:27:53 PM 44.5833 -80.2833 190° South 290 334 18,000 -1,000 Descending Toronto Center
Tue 09:28:53 PM 44.5167 -80.3500 215° Southwest 270 311 17,000 -1,000 Descending Toronto Center
Tue 09:29:53 PM 44.4500 -80.3333 170° South 290 334 16,000 -1,000 Descending Toronto Center
Tue 09:30:53 PM 44.3667 -80.2833 157° South 320 368 15,000 -1,000 Descending Toronto Center
Tue 09:31:53 PM 44.2833 -80.2167 150° Southeast 330 380 14,000 -1,000 Descending Toronto Center
Tue 09:32:53 PM 44.2000 -80.1500 150° Southeast 320 368 13,000 -1,000 Descending Toronto Center
Tue 09:33:53 PM 44.1333 -80.1000 152° Southeast 320 368 12,000 -1,100 Descending Toronto Center
Tue 09:34:53 PM 44.0500 -80.0333 150° Southeast 310 357 10,800 -1,150 Descending Toronto Center
Tue 09:35:53 PM 43.9833 -79.9500 138° Southeast 300 345 9,700 -900 Descending Toronto Center
Tue 09:36:53 PM 43.9167 -79.8833 144° Southeast 290 334 9,000 -500 Descending Toronto Center
Tue 09:37:53 PM 43.8667 -79.8167 136° Southeast 280 322 8,700 -1,000 Descending Toronto Center
Tue 09:38:53 PM 43.8333 -79.7333 119° Southeast 280 322 7,000 -1,600 Descending Toronto Center
Tue 09:39:53 PM 43.8333 -79.6167 90° East 270 311 5,500 -1,400 Descending Toronto Center
Tue 09:40:53 PM 43.8333 -79.5167 90° East 270 311 4,200 -1,250 Descending Toronto Center
Tue 09:41:53 PM 43.7833 -79.5000 166° South 220 253 3,000 -1,200 Descending Toronto Center

Login

Don't have an account? Register now (free) for customized features, flight alerts, and more!